Madre de Deus de Minas, Brazil
Current Conditions -  °F | °C
As of 3:30 AM on Sunday 26 Oct 2014 (Local Time) from SBBQ Reporting Station
Light Rain Light Rain  
Wind Chill: 63°   Ceiling: 8000
Heat Index: 63°   Visibility: 6mi
Dew Point: 59°   Wind: 5mph
Humidity: 88%   Direction: 310°NW
Pressure: 30.12"   Gusts: NA
Location:  21.48°S, 44.33°W
Report Text: SBBQ 260530Z 31004KT 9999 -RA FEW040 OVC080 17/15 Q1020
Loading
Personal Weather Stations






























Interactive Weather Map
Tropical Storm Tracking
New forecast layout! Learn more

10-Day Weather Forecast

Advertisements
Track Severe Weather on mobile